DLH2A EDDL-EDDF
Flight info
| Callsign | DLH2A |
|---|---|
| Flight time | 0h 24m |
| Altitude | 23000 |
| Route | COL6T COL T911 ROLIS ROLIS5A |
| Aircraft | A320/M-SDE3FGHIRWY/LB1 |
Departure
| Time | 2026-05-03 21:19 |
|---|---|
| Airport | Düsseldorf Airport (EDDL) |
Arrival
| Time | 2026-05-03 21:43 |
|---|---|
| Airport | Frankfurt Main Airport (EDDF) |
| Time | Latitude | Longitude | Altitude | Speed | Heading |
|---|---|---|---|---|---|
| 2026-05-03 21:04 | 51.28109 | 6.76538 | 129 ft | 0 kts | 96° |
| 2026-05-03 21:10 | 51.28111 | 6.76502 | 124 ft | 4 kts | 98° |
| 2026-05-03 21:10 | 51.28115 | 6.76460 | 124 ft | 4 kts | 96° |
| 2026-05-03 21:11 | 51.28118 | 6.76422 | 124 ft | 4 kts | 127° |
| 2026-05-03 21:11 | 51.28139 | 6.76405 | 123 ft | 4 kts | 174° |
| 2026-05-03 21:11 | 51.28164 | 6.76398 | 125 ft | 4 kts | 165° |
| 2026-05-03 21:11 | 51.28189 | 6.76385 | 125 ft | 4 kts | 145° |
| 2026-05-03 21:12 | 51.28202 | 6.76365 | 122 ft | 4 kts | 62° |
| 2026-05-03 21:12 | 51.28200 | 6.76360 | 123 ft | 0 kts | 53° |
| 2026-05-03 21:12 | 51.28209 | 6.76379 | 124 ft | 4 kts | 54° |
| 2026-05-03 21:13 | 51.28228 | 6.76418 | 125 ft | 4 kts | 52° |
| 2026-05-03 21:13 | 51.28260 | 6.76481 | 123 ft | 13 kts | 47° |
| 2026-05-03 21:13 | 51.28341 | 6.76494 | 126 ft | 10 kts | 18° |
| 2026-05-03 21:13 | 51.28392 | 6.76568 | 124 ft | 10 kts | 55° |
| 2026-05-03 21:14 | 51.28463 | 6.76721 | 123 ft | 27 kts | 54° |
| 2026-05-03 21:14 | 51.28594 | 6.76998 | 126 ft | 32 kts | 52° |
| 2026-05-03 21:14 | 51.28729 | 6.77280 | 127 ft | 31 kts | 53° |
| 2026-05-03 21:14 | 51.28855 | 6.77546 | 127 ft | 31 kts | 52° |
| 2026-05-03 21:15 | 51.28977 | 6.77798 | 125 ft | 29 kts | 49° |
| 2026-05-03 21:15 | 51.29099 | 6.78056 | 131 ft | 28 kts | 52° |
| 2026-05-03 21:15 | 51.29210 | 6.78291 | 140 ft | 25 kts | 52° |
| 2026-05-03 21:15 | 51.29306 | 6.78493 | 148 ft | 17 kts | 53° |
| 2026-05-03 21:16 | 51.29332 | 6.78546 | 150 ft | 2 kts | 47° |
| 2026-05-03 21:16 | 51.29350 | 6.78560 | 151 ft | 10 kts | 25° |
| 2026-05-03 21:16 | 51.29386 | 6.78574 | 152 ft | 0 kts | 358° |
| 2026-05-03 21:17 | 51.29487 | 6.78560 | 152 ft | 19 kts | 353° |
| 2026-05-03 21:17 | 51.29538 | 6.78488 | 151 ft | 8 kts | 233° |
| 2026-05-03 21:18 | 51.29510 | 6.78449 | 150 ft | 0 kts | 230° |
| 2026-05-03 21:18 | 51.29509 | 6.78447 | 150 ft | 0 kts | 232° |
| 2026-05-03 21:18 | 51.29434 | 6.78288 | 146 ft | 53 kts | 233° |
| 2026-05-03 21:18 | 51.29065 | 6.77513 | 126 ft | 119 kts | 233° |
| 2026-05-03 21:19 | 51.28469 | 6.76275 | 274 ft | 153 kts | 232° |
| 2026-05-03 21:19 | 51.27847 | 6.74895 | 923 ft | 155 kts | 234° |
| 2026-05-03 21:19 | 51.27211 | 6.73495 | 1552 ft | 162 kts | 233° |
| 2026-05-03 21:19 | 51.26497 | 6.71953 | 1875 ft | 184 kts | 233° |
| 2026-05-03 21:20 | 51.24435 | 6.67533 | 2441 ft | 250 kts | 233° |
| 2026-05-03 21:20 | 51.21289 | 6.63502 | 4672 ft | 259 kts | 187° |
| 2026-05-03 21:20 | 51.19463 | 6.63689 | 5597 ft | 264 kts | 177° |
| 2026-05-03 21:20 | 51.16522 | 6.64230 | 7031 ft | 269 kts | 174° |
| 2026-05-03 21:21 | 51.13065 | 6.71226 | 9644 ft | 303 kts | 88° |
| 2026-05-03 21:21 | 51.13533 | 6.80468 | 10932 ft | 344 kts | 89° |
| 2026-05-03 21:21 | 51.14072 | 6.97095 | 12834 ft | 393 kts | 88° |
| 2026-05-03 21:21 | 51.13550 | 7.14424 | 15249 ft | 401 kts | 118° |
| 2026-05-03 21:22 | 51.10812 | 7.21694 | 15630 ft | 415 kts | 118° |
| 2026-05-03 21:22 | 51.07638 | 7.27458 | 17072 ft | 391 kts | 156° |
| 2026-05-03 21:22 | 51.02550 | 7.30240 | 18182 ft | 392 kts | 167° |
| 2026-05-03 21:22 | 50.97308 | 7.32858 | 19190 ft | 399 kts | 163° |
| 2026-05-03 21:23 | 50.92661 | 7.36488 | 20127 ft | 407 kts | 154° |
| 2026-05-03 21:23 | 50.90241 | 7.38855 | 20634 ft | 410 kts | 152° |
| 2026-05-03 21:23 | 50.87838 | 7.41323 | 21126 ft | 413 kts | 152° |
| 2026-05-03 21:23 | 50.85449 | 7.43763 | 21597 ft | 414 kts | 152° |
| 2026-05-03 21:24 | 50.83006 | 7.46176 | 21927 ft | 415 kts | 153° |
| 2026-05-03 21:24 | 50.80615 | 7.48820 | 21590 ft | 426 kts | 143° |
| 2026-05-03 21:24 | 50.78702 | 7.52478 | 20507 ft | 440 kts | 127° |
| 2026-05-03 21:24 | 50.77040 | 7.56567 | 19651 ft | 442 kts | 127° |
| 2026-05-03 21:25 | 50.75389 | 7.60652 | 18935 ft | 440 kts | 127° |
| 2026-05-03 21:25 | 50.73746 | 7.64704 | 18268 ft | 437 kts | 127° |
| 2026-05-03 21:25 | 50.72103 | 7.68717 | 17556 ft | 433 kts | 127° |
| 2026-05-03 21:25 | 50.70466 | 7.72679 | 16883 ft | 428 kts | 127° |
| 2026-05-03 21:26 | 50.68838 | 7.76580 | 16231 ft | 424 kts | 127° |
| 2026-05-03 21:26 | 50.67218 | 7.80443 | 15603 ft | 419 kts | 127° |
| 2026-05-03 21:26 | 50.65621 | 7.84249 | 14990 ft | 415 kts | 127° |
| 2026-05-03 21:26 | 50.64057 | 7.87979 | 14394 ft | 412 kts | 127° |
| 2026-05-03 21:27 | 50.62490 | 7.91721 | 13796 ft | 408 kts | 127° |
| 2026-05-03 21:27 | 50.60932 | 7.95437 | 13115 ft | 404 kts | 127° |
| 2026-05-03 21:27 | 50.59384 | 7.99115 | 12460 ft | 401 kts | 127° |
| 2026-05-03 21:27 | 50.57880 | 8.02690 | 11847 ft | 396 kts | 127° |
| 2026-05-03 21:28 | 50.56368 | 8.06289 | 11227 ft | 392 kts | 127° |
| 2026-05-03 21:28 | 50.54874 | 8.09835 | 10614 ft | 388 kts | 127° |
| 2026-05-03 21:28 | 50.53385 | 8.13362 | 10148 ft | 386 kts | 127° |
| 2026-05-03 21:28 | 50.51901 | 8.16870 | 9986 ft | 380 kts | 127° |
| 2026-05-03 21:29 | 50.50492 | 8.20198 | 10002 ft | 357 kts | 128° |
| 2026-05-03 21:29 | 50.49172 | 8.23317 | 10005 ft | 338 kts | 128° |
| 2026-05-03 21:29 | 50.47906 | 8.26308 | 10007 ft | 320 kts | 128° |
| 2026-05-03 21:29 | 50.46702 | 8.29153 | 10008 ft | 305 kts | 128° |
| 2026-05-03 21:30 | 50.45546 | 8.31866 | 10006 ft | 296 kts | 129° |
| 2026-05-03 21:30 | 50.44400 | 8.34537 | 10005 ft | 294 kts | 129° |
| 2026-05-03 21:30 | 50.43254 | 8.37202 | 10001 ft | 295 kts | 129° |
| 2026-05-03 21:30 | 50.42109 | 8.39871 | 10011 ft | 295 kts | 129° |
| 2026-05-03 21:31 | 50.40964 | 8.42549 | 10011 ft | 296 kts | 129° |
| 2026-05-03 21:31 | 50.39836 | 8.45190 | 10009 ft | 295 kts | 129° |
| 2026-05-03 21:31 | 50.38693 | 8.47860 | 10006 ft | 295 kts | 129° |
| 2026-05-03 21:31 | 50.37549 | 8.50523 | 10008 ft | 295 kts | 129° |
| 2026-05-03 21:32 | 50.36407 | 8.53181 | 9765 ft | 293 kts | 129° |
| 2026-05-03 21:32 | 50.35273 | 8.55818 | 9384 ft | 292 kts | 129° |
| 2026-05-03 21:32 | 50.34143 | 8.58447 | 9007 ft | 290 kts | 129° |
| 2026-05-03 21:32 | 50.33018 | 8.61067 | 8610 ft | 289 kts | 129° |
| 2026-05-03 21:33 | 50.31900 | 8.63666 | 8254 ft | 287 kts | 130° |
| 2026-05-03 21:33 | 50.30804 | 8.66209 | 7897 ft | 285 kts | 130° |
| 2026-05-03 21:33 | 50.29697 | 8.68769 | 7511 ft | 283 kts | 130° |
| 2026-05-03 21:33 | 50.28598 | 8.71311 | 7133 ft | 281 kts | 130° |
| 2026-05-03 21:34 | 50.27509 | 8.73830 | 6998 ft | 280 kts | 130° |
| 2026-05-03 21:34 | 50.26419 | 8.76362 | 6821 ft | 279 kts | 130° |
| 2026-05-03 21:34 | 50.25338 | 8.78880 | 6412 ft | 279 kts | 130° |
| 2026-05-03 21:34 | 50.24255 | 8.81390 | 6011 ft | 278 kts | 130° |
| 2026-05-03 21:35 | 50.23162 | 8.83885 | 5599 ft | 278 kts | 129° |
| 2026-05-03 21:35 | 50.22056 | 8.86355 | 5193 ft | 277 kts | 130° |
| 2026-05-03 21:35 | 50.20957 | 8.88764 | 4801 ft | 276 kts | 129° |
| 2026-05-03 21:35 | 50.19840 | 8.91167 | 4540 ft | 268 kts | 130° |
| 2026-05-03 21:36 | 50.18772 | 8.93467 | 4389 ft | 256 kts | 130° |
| 2026-05-03 21:36 | 50.17720 | 8.95630 | 4280 ft | 242 kts | 140° |
| 2026-05-03 21:36 | 50.16364 | 8.96938 | 4151 ft | 222 kts | 169° |
| 2026-05-03 21:36 | 50.14879 | 8.97114 | 4056 ft | 212 kts | 194° |
| 2026-05-03 21:37 | 50.13545 | 8.96293 | 4016 ft | 205 kts | 218° |
| 2026-05-03 21:37 | 50.12578 | 8.94704 | 4009 ft | 203 kts | 241° |
| 2026-05-03 21:37 | 50.12034 | 8.92686 | 4015 ft | 202 kts | 250° |
| 2026-05-03 21:37 | 50.11556 | 8.90618 | 4015 ft | 202 kts | 250° |
| 2026-05-03 21:38 | 50.11109 | 8.88699 | 4007 ft | 181 kts | 250° |
| 2026-05-03 21:38 | 50.10675 | 8.86849 | 3998 ft | 183 kts | 250° |
| 2026-05-03 21:38 | 50.10238 | 8.84991 | 3845 ft | 182 kts | 250° |
| 2026-05-03 21:38 | 50.09802 | 8.83141 | 3633 ft | 181 kts | 250° |
| 2026-05-03 21:39 | 50.09342 | 8.81185 | 3391 ft | 201 kts | 250° |
| 2026-05-03 21:39 | 50.08872 | 8.79191 | 3124 ft | 190 kts | 250° |
| 2026-05-03 21:39 | 50.08424 | 8.77295 | 2870 ft | 183 kts | 250° |
| 2026-05-03 21:39 | 50.08001 | 8.75503 | 2651 ft | 170 kts | 250° |
| 2026-05-03 21:40 | 50.07619 | 8.73888 | 2467 ft | 150 kts | 250° |
| 2026-05-03 21:40 | 50.07272 | 8.72441 | 2206 ft | 141 kts | 250° |
| 2026-05-03 21:40 | 50.06938 | 8.71035 | 2038 ft | 137 kts | 250° |
| 2026-05-03 21:40 | 50.06612 | 8.69650 | 1883 ft | 136 kts | 249° |
| 2026-05-03 21:41 | 50.06291 | 8.68276 | 1693 ft | 135 kts | 249° |
| 2026-05-03 21:41 | 50.05968 | 8.66911 | 1495 ft | 134 kts | 249° |
| 2026-05-03 21:41 | 50.05641 | 8.65551 | 1289 ft | 134 kts | 251° |
| 2026-05-03 21:41 | 50.05315 | 8.64181 | 1096 ft | 135 kts | 250° |
| 2026-05-03 21:42 | 50.04987 | 8.62802 | 956 ft | 137 kts | 251° |
| 2026-05-03 21:42 | 50.04657 | 8.61407 | 795 ft | 137 kts | 250° |
| 2026-05-03 21:42 | 50.04337 | 8.60053 | 614 ft | 137 kts | 250° |
| 2026-05-03 21:42 | 50.03995 | 8.58619 | 423 ft | 137 kts | 249° |
| 2026-05-03 21:43 | 50.03689 | 8.57321 | 361 ft | 111 kts | 249° |
| 2026-05-03 21:43 | 50.03480 | 8.56441 | 352 ft | 52 kts | 249° |
| 2026-05-03 21:43 | 50.03445 | 8.56037 | 347 ft | 35 kts | 272° |
| 2026-05-03 21:43 | 50.03451 | 8.55941 | 349 ft | 2 kts | 276° |
| 2026-05-03 21:44 | 50.03453 | 8.55916 | 345 ft | 2 kts | 278° |
| 2026-05-03 21:44 | 50.03459 | 8.55860 | 345 ft | 12 kts | 279° |
| 2026-05-03 21:44 | 50.03481 | 8.55667 | 351 ft | 24 kts | 282° |
| 2026-05-03 21:44 | 50.03479 | 8.55403 | 347 ft | 25 kts | 252° |
| 2026-05-03 21:45 | 50.03415 | 8.55141 | 350 ft | 25 kts | 251° |
| 2026-05-03 21:45 | 50.03406 | 8.54923 | 350 ft | 19 kts | 296° |
| 2026-05-03 21:45 | 50.03506 | 8.54817 | 349 ft | 18 kts | 338° |
| 2026-05-03 21:45 | 50.03624 | 8.54749 | 351 ft | 18 kts | 337° |
| 2026-05-03 21:46 | 50.03718 | 8.54711 | 345 ft | 12 kts | 6° |
| 2026-05-03 21:46 | 50.03773 | 8.54796 | 355 ft | 15 kts | 68° |
| 2026-05-03 21:46 | 50.03820 | 8.54996 | 350 ft | 24 kts | 70° |
| 2026-05-03 21:46 | 50.03889 | 8.55281 | 354 ft | 31 kts | 70° |
| 2026-05-03 21:47 | 50.03965 | 8.55602 | 355 ft | 32 kts | 70° |
| 2026-05-03 21:47 | 50.04043 | 8.55929 | 356 ft | 32 kts | 70° |
| 2026-05-03 21:47 | 50.04144 | 8.56233 | 356 ft | 30 kts | 26° |
| 2026-05-03 21:47 | 50.04307 | 8.56099 | 360 ft | 26 kts | 317° |
| 2026-05-03 21:48 | 50.04420 | 8.56035 | 359 ft | 15 kts | 20° |
| 2026-05-03 21:48 | 50.04462 | 8.56158 | 359 ft | 15 kts | 70° |
| 2026-05-03 21:48 | 50.04505 | 8.56347 | 359 ft | 18 kts | 69° |
| 2026-05-03 21:48 | 50.04594 | 8.56479 | 360 ft | 18 kts | 21° |
| 2026-05-03 21:49 | 50.04659 | 8.56593 | 360 ft | 14 kts | 110° |
| 2026-05-03 21:49 | 50.04635 | 8.56670 | 358 ft | 0 kts | 114° |